sensor_id;sensor_type;location;lat;lon;timestamp;P1;durP1;ratioP1;P2;durP2;ratioP2
75620;SDS011;64574;48.506;-2.750;2023-12-04T00:01:16;0.75;;;0.10;;
75620;SDS011;64574;48.506;-2.750;2023-12-04T00:03:42;2.80;;;0.30;;
75620;SDS011;64574;48.506;-2.750;2023-12-04T00:06:09;3.30;;;0.38;;
75620;SDS011;64574;48.506;-2.750;2023-12-04T00:08:35;0.75;;;0.25;;
75620;SDS011;64574;48.506;-2.750;2023-12-04T00:11:02;0.93;;;0.40;;
75620;SDS011;64574;48.506;-2.750;2023-12-04T00:13:28;0.50;;;0.30;;
75620;SDS011;64574;48.506;-2.750;2023-12-04T00:15:54;1.17;;;0.43;;
75620;SDS011;64574;48.506;-2.750;2023-12-04T00:18:19;0.15;;;0.10;;
75620;SDS011;64574;48.506;-2.750;2023-12-04T00:20:45;1.05;;;0.28;;
75620;SDS011;64574;48.506;-2.750;2023-12-04T00:23:10;1.00;;;0.20;;
75620;SDS011;64574;48.506;-2.750;2023-12-04T00:25:36;0.35;;;0.20;;
75620;SDS011;64574;48.506;-2.750;2023-12-04T00:28:02;1.58;;;0.20;;
75620;SDS011;64574;48.506;-2.750;2023-12-04T00:30:27;0.90;;;0.20;;
75620;SDS011;64574;48.506;-2.750;2023-12-04T00:32:53;0.88;;;0.15;;
75620;SDS011;64574;48.506;-2.750;2023-12-04T00:35:19;0.52;;;0.20;;
75620;SDS011;64574;48.506;-2.750;2023-12-04T00:37:44;0.35;;;0.13;;
75620;SDS011;64574;48.506;-2.750;2023-12-04T00:40:10;1.88;;;0.10;;
75620;SDS011;64574;48.506;-2.750;2023-12-04T00:45:02;0.52;;;0.20;;
75620;SDS011;64574;48.506;-2.750;2023-12-04T00:47:28;1.77;;;0.13;;
75620;SDS011;64574;48.506;-2.750;2023-12-04T00:49:54;1.17;;;0.20;;
75620;SDS011;64574;48.506;-2.750;2023-12-04T00:52:19;1.27;;;0.25;;
75620;SDS011;64574;48.506;-2.750;2023-12-04T00:54:45;1.23;;;0.30;;
75620;SDS011;64574;48.506;-2.750;2023-12-04T00:57:11;2.88;;;0.40;;
75620;SDS011;64574;48.506;-2.750;2023-12-04T00:59:36;0.85;;;0.30;;
75620;SDS011;64574;48.506;-2.750;2023-12-04T01:02:02;0.93;;;0.20;;
75620;SDS011;64574;48.506;-2.750;2023-12-04T01:04:28;1.40;;;0.30;;
75620;SDS011;64574;48.506;-2.750;2023-12-04T01:06:54;1.42;;;0.30;;
75620;SDS011;64574;48.506;-2.750;2023-12-04T01:09:19;0.20;;;0.15;;
75620;SDS011;64574;48.506;-2.750;2023-12-04T01:11:49;1.35;;;0.10;;
75620;SDS011;64574;48.506;-2.750;2023-12-04T01:14:17;0.68;;;0.40;;
75620;SDS011;64574;48.506;-2.750;2023-12-04T01:16:42;2.17;;;0.40;;
75620;SDS011;64574;48.506;-2.750;2023-12-04T01:19:08;1.73;;;0.50;;
75620;SDS011;64574;48.506;-2.750;2023-12-04T01:21:34;0.88;;;0.20;;
75620;SDS011;64574;48.506;-2.750;2023-12-04T01:24:00;1.83;;;0.30;;
75620;SDS011;64574;48.506;-2.750;2023-12-04T01:26:26;0.38;;;0.20;;
75620;SDS011;64574;48.506;-2.750;2023-12-04T01:28:51;3.78;;;0.43;;
75620;SDS011;64574;48.506;-2.750;2023-12-04T01:31:17;1.05;;;0.30;;
75620;SDS011;64574;48.506;-2.750;2023-12-04T01:33:42;2.28;;;0.30;;
75620;SDS011;64574;48.506;-2.750;2023-12-04T01:36:08;1.73;;;0.30;;
75620;SDS011;64574;48.506;-2.750;2023-12-04T01:38:34;0.80;;;0.20;;
75620;SDS011;64574;48.506;-2.750;2023-12-04T01:41:00;2.72;;;0.32;;
75620;SDS011;64574;48.506;-2.750;2023-12-04T01:43:25;2.35;;;0.40;;
75620;SDS011;64574;48.506;-2.750;2023-12-04T01:45:51;3.47;;;0.43;;
75620;SDS011;64574;48.506;-2.750;2023-12-04T01:48:18;2.05;;;0.40;;
75620;SDS011;64574;48.506;-2.750;2023-12-04T01:50:44;2.42;;;0.60;;
75620;SDS011;64574;48.506;-2.750;2023-12-04T01:53:10;3.13;;;0.50;;
75620;SDS011;64574;48.506;-2.750;2023-12-04T01:55:36;3.00;;;0.70;;
75620;SDS011;64574;48.506;-2.750;2023-12-04T01:58:03;4.25;;;0.90;;
75620;SDS011;64574;48.506;-2.750;2023-12-04T02:00:30;5.90;;;1.07;;
75620;SDS011;64574;48.506;-2.750;2023-12-04T02:02:57;4.40;;;0.65;;
75620;SDS011;64574;48.506;-2.750;2023-12-04T02:05:24;6.82;;;1.45;;
75620;SDS011;64574;48.506;-2.750;2023-12-04T02:07:52;4.90;;;0.90;;
75620;SDS011;64574;48.506;-2.750;2023-12-04T02:10:18;4.57;;;0.85;;
75620;SDS011;64574;48.506;-2.750;2023-12-04T02:12:44;4.70;;;1.00;;
75620;SDS011;64574;48.506;-2.750;2023-12-04T02:15:10;4.95;;;0.70;;
75620;SDS011;64574;48.506;-2.750;2023-12-04T02:17:36;7.90;;;1.33;;
75620;SDS011;64574;48.506;-2.750;2023-12-04T02:20:02;5.38;;;0.90;;
75620;SDS011;64574;48.506;-2.750;2023-12-04T02:22:28;3.08;;;0.55;;
75620;SDS011;64574;48.506;-2.750;2023-12-04T02:24:54;5.82;;;0.90;;
75620;SDS011;64574;48.506;-2.750;2023-12-04T02:27:25;3.55;;;0.90;;
75620;SDS011;64574;48.506;-2.750;2023-12-04T02:29:58;2.72;;;0.85;;
75620;SDS011;64574;48.506;-2.750;2023-12-04T02:32:26;4.00;;;1.48;;
75620;SDS011;64574;48.506;-2.750;2023-12-04T02:34:55;3.35;;;0.60;;
75620;SDS011;64574;48.506;-2.750;2023-12-04T02:37:22;3.92;;;1.30;;
75620;SDS011;64574;48.506;-2.750;2023-12-04T02:39:49;8.07;;;1.10;;
75620;SDS011;64574;48.506;-2.750;2023-12-04T02:42:20;3.13;;;0.70;;
75620;SDS011;64574;48.506;-2.750;2023-12-04T02:44:46;5.43;;;0.90;;
75620;SDS011;64574;48.506;-2.750;2023-12-04T02:47:11;9.43;;;1.13;;
75620;SDS011;64574;48.506;-2.750;2023-12-04T02:49:37;9.38;;;1.45;;
75620;SDS011;64574;48.506;-2.750;2023-12-04T02:52:03;8.77;;;1.25;;
75620;SDS011;64574;48.506;-2.750;2023-12-04T02:54:29;8.07;;;1.30;;
75620;SDS011;64574;48.506;-2.750;2023-12-04T02:56:54;6.05;;;1.58;;
75620;SDS011;64574;48.506;-2.750;2023-12-04T02:59:20;10.80;;;1.38;;
75620;SDS011;64574;48.506;-2.750;2023-12-04T03:01:45;9.27;;;1.38;;
75620;SDS011;64574;48.506;-2.750;2023-12-04T03:04:12;8.63;;;1.55;;
75620;SDS011;64574;48.506;-2.750;2023-12-04T03:06:38;9.85;;;1.35;;
75620;SDS011;64574;48.506;-2.750;2023-12-04T03:09:04;10.98;;;1.45;;
75620;SDS011;64574;48.506;-2.750;2023-12-04T03:11:30;8.15;;;1.30;;
75620;SDS011;64574;48.506;-2.750;2023-12-04T03:13:56;11.02;;;1.50;;
75620;SDS011;64574;48.506;-2.750;2023-12-04T03:16:21;6.40;;;1.45;;
75620;SDS011;64574;48.506;-2.750;2023-12-04T03:18:47;11.10;;;1.33;;
75620;SDS011;64574;48.506;-2.750;2023-12-04T03:21:13;8.35;;;1.60;;
75620;SDS011;64574;48.506;-2.750;2023-12-04T03:23:38;8.45;;;1.50;;
75620;SDS011;64574;48.506;-2.750;2023-12-04T03:26:04;13.07;;;1.90;;
75620;SDS011;64574;48.506;-2.750;2023-12-04T03:28:30;12.98;;;1.40;;
75620;SDS011;64574;48.506;-2.750;2023-12-04T03:30:55;6.07;;;1.52;;
75620;SDS011;64574;48.506;-2.750;2023-12-04T03:33:21;12.07;;;1.90;;
75620;SDS011;64574;48.506;-2.750;2023-12-04T03:35:47;11.10;;;1.52;;
75620;SDS011;64574;48.506;-2.750;2023-12-04T03:38:12;14.88;;;2.30;;
75620;SDS011;64574;48.506;-2.750;2023-12-04T03:40:38;8.30;;;1.80;;
75620;SDS011;64574;48.506;-2.750;2023-12-04T03:43:04;10.15;;;1.30;;
75620;SDS011;64574;48.506;-2.750;2023-12-04T03:45:30;10.05;;;1.80;;
75620;SDS011;64574;48.506;-2.750;2023-12-04T03:47:55;10.57;;;1.90;;
75620;SDS011;64574;48.506;-2.750;2023-12-04T03:50:21;10.05;;;1.75;;
75620;SDS011;64574;48.506;-2.750;2023-12-04T03:52:46;8.52;;;1.60;;
75620;SDS011;64574;48.506;-2.750;2023-12-04T03:55:12;9.13;;;1.50;;
75620;SDS011;64574;48.506;-2.750;2023-12-04T03:57:38;12.75;;;2.15;;
75620;SDS011;64574;48.506;-2.750;2023-12-04T04:00:04;7.80;;;1.65;;
75620;SDS011;64574;48.506;-2.750;2023-12-04T04:04:56;10.77;;;1.52;;
75620;SDS011;64574;48.506;-2.750;2023-12-04T04:07:21;12.88;;;1.50;;
75620;SDS011;64574;48.506;-2.750;2023-12-04T04:09:47;9.07;;;1.33;;
75620;SDS011;64574;48.506;-2.750;2023-12-04T04:12:13;7.70;;;1.67;;
75620;SDS011;64574;48.506;-2.750;2023-12-04T04:14:38;9.40;;;1.52;;
75620;SDS011;64574;48.506;-2.750;2023-12-04T04:17:04;8.38;;;1.73;;
75620;SDS011;64574;48.506;-2.750;2023-12-04T04:19:30;10.63;;;1.30;;
75620;SDS011;64574;48.506;-2.750;2023-12-04T04:21:56;6.18;;;1.10;;
75620;SDS011;64574;48.506;-2.750;2023-12-04T04:24:21;5.00;;;0.90;;
75620;SDS011;64574;48.506;-2.750;2023-12-04T04:26:47;8.18;;;1.23;;
75620;SDS011;64574;48.506;-2.750;2023-12-04T04:29:13;4.93;;;0.90;;
75620;SDS011;64574;48.506;-2.750;2023-12-04T04:31:38;6.18;;;1.08;;
75620;SDS011;64574;48.506;-2.750;2023-12-04T04:34:04;8.10;;;1.33;;
75620;SDS011;64574;48.506;-2.750;2023-12-04T04:36:30;7.72;;;0.90;;
75620;SDS011;64574;48.506;-2.750;2023-12-04T04:38:55;6.28;;;1.10;;
75620;SDS011;64574;48.506;-2.750;2023-12-04T04:41:21;6.75;;;1.10;;
75620;SDS011;64574;48.506;-2.750;2023-12-04T04:43:46;5.10;;;1.10;;
75620;SDS011;64574;48.506;-2.750;2023-12-04T04:46:12;6.75;;;1.20;;
75620;SDS011;64574;48.506;-2.750;2023-12-04T04:48:38;6.53;;;0.98;;
75620;SDS011;64574;48.506;-2.750;2023-12-04T04:51:05;10.13;;;1.17;;
75620;SDS011;64574;48.506;-2.750;2023-12-04T04:53:30;10.40;;;1.13;;
75620;SDS011;64574;48.506;-2.750;2023-12-04T04:55:56;4.18;;;1.00;;
75620;SDS011;64574;48.506;-2.750;2023-12-04T04:58:22;5.05;;;1.20;;
75620;SDS011;64574;48.506;-2.750;2023-12-04T05:00:47;5.97;;;1.10;;
75620;SDS011;64574;48.506;-2.750;2023-12-04T05:03:13;5.65;;;1.30;;
75620;SDS011;64574;48.506;-2.750;2023-12-04T05:05:39;6.20;;;1.08;;
75620;SDS011;64574;48.506;-2.750;2023-12-04T05:08:04;5.65;;;1.10;;
75620;SDS011;64574;48.506;-2.750;2023-12-04T05:10:30;5.78;;;1.23;;
75620;SDS011;64574;48.506;-2.750;2023-12-04T05:12:56;8.77;;;1.45;;
75620;SDS011;64574;48.506;-2.750;2023-12-04T05:15:21;6.70;;;1.15;;
75620;SDS011;64574;48.506;-2.750;2023-12-04T05:17:47;6.30;;;1.00;;
75620;SDS011;64574;48.506;-2.750;2023-12-04T05:20:12;12.52;;;1.98;;
75620;SDS011;64574;48.506;-2.750;2023-12-04T05:22:38;7.47;;;1.23;;
75620;SDS011;64574;48.506;-2.750;2023-12-04T05:25:05;7.03;;;1.33;;
75620;SDS011;64574;48.506;-2.750;2023-12-04T05:27:31;5.25;;;1.00;;
75620;SDS011;64574;48.506;-2.750;2023-12-04T05:29:57;5.55;;;1.00;;
75620;SDS011;64574;48.506;-2.750;2023-12-04T05:32:22;5.82;;;1.10;;
75620;SDS011;64574;48.506;-2.750;2023-12-04T05:34:48;9.70;;;1.73;;
75620;SDS011;64574;48.506;-2.750;2023-12-04T05:37:13;5.60;;;1.13;;
75620;SDS011;64574;48.506;-2.750;2023-12-04T05:39:39;8.65;;;1.00;;
75620;SDS011;64574;48.506;-2.750;2023-12-04T05:42:06;9.88;;;1.80;;
75620;SDS011;64574;48.506;-2.750;2023-12-04T05:44:31;8.52;;;1.10;;
75620;SDS011;64574;48.506;-2.750;2023-12-04T05:46:58;12.52;;;1.60;;
75620;SDS011;64574;48.506;-2.750;2023-12-04T05:49:24;9.02;;;1.63;;
75620;SDS011;64574;48.506;-2.750;2023-12-04T05:51:49;7.82;;;1.10;;
75620;SDS011;64574;48.506;-2.750;2023-12-04T05:54:15;11.93;;;2.00;;
75620;SDS011;64574;48.506;-2.750;2023-12-04T05:56:41;10.25;;;1.17;;
75620;SDS011;64574;48.506;-2.750;2023-12-04T05:59:07;10.57;;;1.83;;
75620;SDS011;64574;48.506;-2.750;2023-12-04T06:01:33;10.43;;;1.40;;
75620;SDS011;64574;48.506;-2.750;2023-12-04T06:03:59;7.20;;;1.40;;
75620;SDS011;64574;48.506;-2.750;2023-12-04T06:06:24;6.40;;;1.45;;
75620;SDS011;64574;48.506;-2.750;2023-12-04T06:08:50;6.88;;;1.35;;
75620;SDS011;64574;48.506;-2.750;2023-12-04T06:11:15;13.63;;;2.80;;
75620;SDS011;64574;48.506;-2.750;2023-12-04T06:13:41;8.30;;;1.52;;
75620;SDS011;64574;48.506;-2.750;2023-12-04T06:16:07;6.28;;;1.38;;
75620;SDS011;64574;48.506;-2.750;2023-12-04T06:18:33;15.43;;;1.58;;
75620;SDS011;64574;48.506;-2.750;2023-12-04T06:20:58;8.40;;;1.27;;
75620;SDS011;64574;48.506;-2.750;2023-12-04T06:23:24;11.13;;;1.63;;
75620;SDS011;64574;48.506;-2.750;2023-12-04T06:25:50;8.82;;;2.33;;
75620;SDS011;64574;48.506;-2.750;2023-12-04T06:28:16;11.57;;;1.45;;
75620;SDS011;64574;48.506;-2.750;2023-12-04T06:30:42;15.95;;;2.08;;
75620;SDS011;64574;48.506;-2.750;2023-12-04T06:33:08;15.82;;;1.60;;
75620;SDS011;64574;48.506;-2.750;2023-12-04T06:35:34;8.98;;;1.15;;
75620;SDS011;64574;48.506;-2.750;2023-12-04T06:38:02;5.53;;;1.20;;
75620;SDS011;64574;48.506;-2.750;2023-12-04T06:40:32;10.05;;;1.25;;
75620;SDS011;64574;48.506;-2.750;2023-12-04T06:42:58;11.13;;;1.88;;
75620;SDS011;64574;48.506;-2.750;2023-12-04T06:45:24;7.38;;;1.80;;
75620;SDS011;64574;48.506;-2.750;2023-12-04T06:47:51;7.47;;;1.63;;
75620;SDS011;64574;48.506;-2.750;2023-12-04T06:50:18;8.98;;;1.70;;
75620;SDS011;64574;48.506;-2.750;2023-12-04T06:52:44;9.40;;;1.38;;
75620;SDS011;64574;48.506;-2.750;2023-12-04T06:55:10;6.95;;;1.63;;
75620;SDS011;64574;48.506;-2.750;2023-12-04T06:57:37;6.60;;;1.15;;
75620;SDS011;64574;48.506;-2.750;2023-12-04T07:00:02;6.95;;;1.63;;
75620;SDS011;64574;48.506;-2.750;2023-12-04T07:02:29;5.20;;;1.17;;
75620;SDS011;64574;48.506;-2.750;2023-12-04T07:04:55;4.65;;;1.42;;
75620;SDS011;64574;48.506;-2.750;2023-12-04T07:07:20;11.35;;;1.35;;
75620;SDS011;64574;48.506;-2.750;2023-12-04T07:09:46;5.55;;;1.10;;
75620;SDS011;64574;48.506;-2.750;2023-12-04T07:12:13;11.10;;;1.70;;
75620;SDS011;64574;48.506;-2.750;2023-12-04T07:14:38;6.40;;;0.95;;
75620;SDS011;64574;48.506;-2.750;2023-12-04T07:17:04;4.80;;;1.13;;
75620;SDS011;64574;48.506;-2.750;2023-12-04T07:19:30;7.78;;;1.38;;
75620;SDS011;64574;48.506;-2.750;2023-12-04T07:21:55;10.32;;;1.60;;
75620;SDS011;64574;48.506;-2.750;2023-12-04T07:24:21;11.23;;;1.70;;
75620;SDS011;64574;48.506;-2.750;2023-12-04T07:26:47;8.10;;;1.40;;
75620;SDS011;64574;48.506;-2.750;2023-12-04T07:29:13;7.00;;;1.13;;
75620;SDS011;64574;48.506;-2.750;2023-12-04T07:31:38;7.22;;;1.30;;
75620;SDS011;64574;48.506;-2.750;2023-12-04T07:34:06;7.38;;;1.23;;
75620;SDS011;64574;48.506;-2.750;2023-12-04T07:36:32;8.90;;;1.60;;
75620;SDS011;64574;48.506;-2.750;2023-12-04T07:38:57;6.78;;;1.27;;
75620;SDS011;64574;48.506;-2.750;2023-12-04T07:41:23;7.72;;;1.42;;
75620;SDS011;64574;48.506;-2.750;2023-12-04T07:43:49;6.43;;;1.40;;
75620;SDS011;64574;48.506;-2.750;2023-12-04T07:46:14;8.15;;;1.10;;
75620;SDS011;64574;48.506;-2.750;2023-12-04T07:48:41;5.78;;;1.10;;
75620;SDS011;64574;48.506;-2.750;2023-12-04T07:51:07;7.05;;;1.50;;
75620;SDS011;64574;48.506;-2.750;2023-12-04T07:53:34;6.53;;;1.60;;
75620;SDS011;64574;48.506;-2.750;2023-12-04T07:56:03;6.50;;;1.40;;
75620;SDS011;64574;48.506;-2.750;2023-12-04T07:58:30;6.60;;;1.13;;
75620;SDS011;64574;48.506;-2.750;2023-12-04T08:00:56;9.80;;;1.50;;
75620;SDS011;64574;48.506;-2.750;2023-12-04T08:03:22;11.15;;;1.52;;
75620;SDS011;64574;48.506;-2.750;2023-12-04T08:05:49;6.18;;;1.30;;
75620;SDS011;64574;48.506;-2.750;2023-12-04T08:08:15;9.38;;;1.48;;
75620;SDS011;64574;48.506;-2.750;2023-12-04T08:10:41;7.03;;;1.30;;
75620;SDS011;64574;48.506;-2.750;2023-12-04T08:13:07;10.52;;;1.77;;
75620;SDS011;64574;48.506;-2.750;2023-12-04T08:15:33;11.60;;;2.47;;
75620;SDS011;64574;48.506;-2.750;2023-12-04T08:17:58;6.40;;;1.08;;
75620;SDS011;64574;48.506;-2.750;2023-12-04T08:20:25;14.77;;;2.38;;
75620;SDS011;64574;48.506;-2.750;2023-12-04T08:22:51;8.30;;;1.45;;
75620;SDS011;64574;48.506;-2.750;2023-12-04T08:25:16;6.68;;;1.20;;
75620;SDS011;64574;48.506;-2.750;2023-12-04T08:27:42;8.07;;;1.85;;
75620;SDS011;64574;48.506;-2.750;2023-12-04T08:30:08;10.83;;;1.73;;
75620;SDS011;64574;48.506;-2.750;2023-12-04T08:32:34;6.32;;;1.23;;
75620;SDS011;64574;48.506;-2.750;2023-12-04T08:35:00;5.88;;;1.50;;
75620;SDS011;64574;48.506;-2.750;2023-12-04T08:37:25;8.52;;;1.40;;
75620;SDS011;64574;48.506;-2.750;2023-12-04T08:39:51;6.10;;;1.23;;
75620;SDS011;64574;48.506;-2.750;2023-12-04T08:42:17;5.82;;;1.63;;
75620;SDS011;64574;48.506;-2.750;2023-12-04T08:44:43;6.32;;;1.88;;
75620;SDS011;64574;48.506;-2.750;2023-12-04T08:47:10;8.02;;;1.50;;
75620;SDS011;64574;48.506;-2.750;2023-12-04T08:49:37;7.22;;;1.30;;
75620;SDS011;64574;48.506;-2.750;2023-12-04T08:52:05;7.50;;;1.38;;
75620;SDS011;64574;48.506;-2.750;2023-12-04T08:54:31;5.82;;;1.13;;
75620;SDS011;64574;48.506;-2.750;2023-12-04T08:56:57;4.78;;;1.42;;
75620;SDS011;64574;48.506;-2.750;2023-12-04T08:59:23;5.88;;;1.02;;
75620;SDS011;64574;48.506;-2.750;2023-12-04T09:01:48;6.85;;;1.15;;
75620;SDS011;64574;48.506;-2.750;2023-12-04T09:18:48;5.20;;;1.00;;
75620;SDS011;64574;48.506;-2.750;2023-12-04T09:21:13;9.23;;;1.23;;
75620;SDS011;64574;48.506;-2.750;2023-12-04T09:23:39;4.82;;;0.85;;
75620;SDS011;64574;48.506;-2.750;2023-12-04T09:26:04;4.32;;;0.95;;
75620;SDS011;64574;48.506;-2.750;2023-12-04T09:28:30;7.05;;;1.30;;
75620;SDS011;64574;48.506;-2.750;2023-12-04T09:30:56;10.77;;;1.70;;
75620;SDS011;64574;48.506;-2.750;2023-12-04T09:33:22;5.72;;;1.23;;
75620;SDS011;64574;48.506;-2.750;2023-12-04T09:35:47;3.15;;;0.65;;
75620;SDS011;64574;48.506;-2.750;2023-12-04T09:38:13;8.45;;;1.08;;
75620;SDS011;64574;48.506;-2.750;2023-12-04T09:40:38;5.95;;;1.20;;
75620;SDS011;64574;48.506;-2.750;2023-12-04T09:43:05;6.65;;;1.08;;
75620;SDS011;64574;48.506;-2.750;2023-12-04T09:45:31;6.63;;;1.05;;
75620;SDS011;64574;48.506;-2.750;2023-12-04T09:47:58;6.50;;;1.08;;
75620;SDS011;64574;48.506;-2.750;2023-12-04T09:50:24;6.60;;;1.20;;
75620;SDS011;64574;48.506;-2.750;2023-12-04T09:52:50;6.25;;;1.10;;
75620;SDS011;64574;48.506;-2.750;2023-12-04T09:55:17;4.50;;;0.82;;
75620;SDS011;64574;48.506;-2.750;2023-12-04T09:57:46;5.13;;;1.52;;
75620;SDS011;64574;48.506;-2.750;2023-12-04T10:00:14;3.80;;;1.05;;
75620;SDS011;64574;48.506;-2.750;2023-12-04T10:02:41;4.55;;;1.40;;
75620;SDS011;64574;48.506;-2.750;2023-12-04T10:05:08;4.45;;;1.40;;
75620;SDS011;64574;48.506;-2.750;2023-12-04T10:07:34;9.27;;;1.30;;
75620;SDS011;64574;48.506;-2.750;2023-12-04T10:10:01;3.22;;;1.00;;
75620;SDS011;64574;48.506;-2.750;2023-12-04T10:12:30;7.38;;;1.60;;
75620;SDS011;64574;48.506;-2.750;2023-12-04T10:15:11;4.32;;;1.23;;
75620;SDS011;64574;48.506;-2.750;2023-12-04T10:17:38;4.50;;;1.33;;
75620;SDS011;64574;48.506;-2.750;2023-12-04T10:22:51;7.07;;;1.40;;
75620;SDS011;64574;48.506;-2.750;2023-12-04T10:25:18;5.05;;;0.90;;
75620;SDS011;64574;48.506;-2.750;2023-12-04T10:27:44;5.03;;;0.88;;
75620;SDS011;64574;48.506;-2.750;2023-12-04T10:30:22;3.95;;;0.70;;
75620;SDS011;64574;48.506;-2.750;2023-12-04T10:32:48;7.35;;;1.45;;
75620;SDS011;64574;48.506;-2.750;2023-12-04T10:35:13;7.40;;;1.23;;
75620;SDS011;64574;48.506;-2.750;2023-12-04T10:37:39;12.55;;;1.85;;
75620;SDS011;64574;48.506;-2.750;2023-12-04T10:40:06;8.20;;;1.88;;
75620;SDS011;64574;48.506;-2.750;2023-12-04T10:42:35;6.57;;;0.98;;
75620;SDS011;64574;48.506;-2.750;2023-12-04T10:45:01;6.75;;;1.48;;
75620;SDS011;64574;48.506;-2.750;2023-12-04T10:47:27;8.35;;;0.82;;
75620;SDS011;64574;48.506;-2.750;2023-12-04T10:49:55;4.43;;;0.88;;
75620;SDS011;64574;48.506;-2.750;2023-12-04T10:52:22;6.15;;;0.80;;
75620;SDS011;64574;48.506;-2.750;2023-12-04T10:54:47;9.80;;;1.33;;
75620;SDS011;64574;48.506;-2.750;2023-12-04T10:57:25;7.68;;;1.02;;
75620;SDS011;64574;48.506;-2.750;2023-12-04T10:59:57;5.30;;;0.82;;
75620;SDS011;64574;48.506;-2.750;2023-12-04T11:02:26;6.70;;;1.20;;
75620;SDS011;64574;48.506;-2.750;2023-12-04T11:04:58;7.63;;;1.38;;
75620;SDS011;64574;48.506;-2.750;2023-12-04T11:07:38;8.07;;;1.98;;
75620;SDS011;64574;48.506;-2.750;2023-12-04T11:10:32;5.10;;;1.08;;
75620;SDS011;64574;48.506;-2.750;2023-12-04T11:13:06;5.95;;;1.30;;
75620;SDS011;64574;48.506;-2.750;2023-12-04T11:15:39;11.60;;;1.85;;
75620;SDS011;64574;48.506;-2.750;2023-12-04T11:18:09;9.32;;;1.98;;
75620;SDS011;64574;48.506;-2.750;2023-12-04T11:20:42;10.90;;;2.40;;
75620;SDS011;64574;48.506;-2.750;2023-12-04T11:23:13;9.63;;;2.00;;
75620;SDS011;64574;48.506;-2.750;2023-12-04T11:25:43;8.15;;;1.92;;
75620;SDS011;64574;48.506;-2.750;2023-12-04T11:30:36;6.97;;;1.00;;
75620;SDS011;64574;48.506;-2.750;2023-12-04T11:33:04;7.25;;;1.27;;
75620;SDS011;64574;48.506;-2.750;2023-12-04T11:35:30;5.88;;;1.83;;
75620;SDS011;64574;48.506;-2.750;2023-12-04T11:37:58;5.32;;;0.90;;
75620;SDS011;64574;48.506;-2.750;2023-12-04T11:40:24;3.70;;;0.95;;
75620;SDS011;64574;48.506;-2.750;2023-12-04T11:42:50;2.67;;;0.50;;
75620;SDS011;64574;48.506;-2.750;2023-12-04T11:45:20;6.20;;;0.90;;
75620;SDS011;64574;48.506;-2.750;2023-12-04T11:47:54;7.30;;;1.20;;
75620;SDS011;64574;48.506;-2.750;2023-12-04T11:50:24;4.15;;;0.80;;
75620;SDS011;64574;48.506;-2.750;2023-12-04T11:52:50;4.28;;;0.80;;
75620;SDS011;64574;48.506;-2.750;2023-12-04T11:55:22;8.73;;;1.05;;
75620;SDS011;64574;48.506;-2.750;2023-12-04T11:57:51;5.70;;;1.10;;
75620;SDS011;64574;48.506;-2.750;2023-12-04T12:00:20;10.38;;;1.13;;
75620;SDS011;64574;48.506;-2.750;2023-12-04T12:05:13;7.15;;;1.20;;
75620;SDS011;64574;48.506;-2.750;2023-12-04T12:07:38;9.85;;;1.88;;
75620;SDS011;64574;48.506;-2.750;2023-12-04T12:10:04;6.65;;;1.20;;
75620;SDS011;64574;48.506;-2.750;2023-12-04T12:12:30;5.03;;;1.40;;
75620;SDS011;64574;48.506;-2.750;2023-12-04T12:14:57;11.07;;;1.63;;
75620;SDS011;64574;48.506;-2.750;2023-12-04T12:17:22;5.30;;;1.35;;
75620;SDS011;64574;48.506;-2.750;2023-12-04T12:19:48;4.65;;;1.20;;
75620;SDS011;64574;48.506;-2.750;2023-12-04T12:22:14;10.18;;;1.70;;
75620;SDS011;64574;48.506;-2.750;2023-12-04T12:24:40;10.98;;;1.35;;
75620;SDS011;64574;48.506;-2.750;2023-12-04T12:27:06;8.48;;;1.75;;
75620;SDS011;64574;48.506;-2.750;2023-12-04T12:29:31;5.88;;;1.00;;
75620;SDS011;64574;48.506;-2.750;2023-12-04T12:31:57;4.53;;;0.70;;
75620;SDS011;64574;48.506;-2.750;2023-12-04T12:34:22;4.97;;;0.80;;
75620;SDS011;64574;48.506;-2.750;2023-12-04T12:36:48;8.45;;;1.27;;
75620;SDS011;64574;48.506;-2.750;2023-12-04T12:39:14;5.82;;;0.85;;
75620;SDS011;64574;48.506;-2.750;2023-12-04T12:41:46;3.20;;;0.73;;
75620;SDS011;64574;48.506;-2.750;2023-12-04T12:44:13;3.30;;;0.95;;
75620;SDS011;64574;48.506;-2.750;2023-12-04T12:46:40;4.20;;;0.77;;
75620;SDS011;64574;48.506;-2.750;2023-12-04T12:49:05;7.38;;;0.93;;
75620;SDS011;64574;48.506;-2.750;2023-12-04T12:51:31;5.53;;;1.02;;
75620;SDS011;64574;48.506;-2.750;2023-12-04T12:53:57;4.45;;;0.80;;
75620;SDS011;64574;48.506;-2.750;2023-12-04T12:56:24;5.72;;;1.33;;
75620;SDS011;64574;48.506;-2.750;2023-12-04T12:58:52;5.65;;;0.95;;
75620;SDS011;64574;48.506;-2.750;2023-12-04T13:01:19;8.60;;;1.13;;
75620;SDS011;64574;48.506;-2.750;2023-12-04T13:03:47;4.88;;;0.95;;
75620;SDS011;64574;48.506;-2.750;2023-12-04T13:06:13;4.85;;;1.13;;
75620;SDS011;64574;48.506;-2.750;2023-12-04T13:08:38;6.00;;;1.48;;
75620;SDS011;64574;48.506;-2.750;2023-12-04T13:11:04;3.67;;;0.70;;
75620;SDS011;64574;48.506;-2.750;2023-12-04T13:13:30;4.82;;;0.88;;
75620;SDS011;64574;48.506;-2.750;2023-12-04T13:15:57;4.95;;;1.00;;
75620;SDS011;64574;48.506;-2.750;2023-12-04T13:20:49;5.53;;;0.90;;
75620;SDS011;64574;48.506;-2.750;2023-12-04T13:23:14;4.05;;;0.80;;
75620;SDS011;64574;48.506;-2.750;2023-12-04T13:25:40;2.35;;;0.80;;
75620;SDS011;64574;48.506;-2.750;2023-12-04T13:28:06;4.90;;;0.65;;
75620;SDS011;64574;48.506;-2.750;2023-12-04T17:49:14;6.95;;;1.35;;
75620;SDS011;64574;48.506;-2.750;2023-12-04T17:51:40;5.03;;;1.35;;
75620;SDS011;64574;48.506;-2.750;2023-12-04T17:54:05;11.43;;;2.92;;
75620;SDS011;64574;48.506;-2.750;2023-12-04T17:56:32;9.38;;;1.85;;
75620;SDS011;64574;48.506;-2.750;2023-12-04T17:58:58;8.18;;;2.05;;
75620;SDS011;64574;48.506;-2.750;2023-12-04T18:01:25;4.82;;;1.83;;
75620;SDS011;64574;48.506;-2.750;2023-12-04T18:03:50;6.78;;;1.48;;
75620;SDS011;64574;48.506;-2.750;2023-12-04T18:06:29;6.60;;;1.60;;
75620;SDS011;64574;48.506;-2.750;2023-12-04T18:08:56;9.43;;;1.90;;
75620;SDS011;64574;48.506;-2.750;2023-12-04T18:11:22;9.00;;;1.90;;
75620;SDS011;64574;48.506;-2.750;2023-12-04T18:13:48;8.38;;;1.88;;
75620;SDS011;64574;48.506;-2.750;2023-12-04T18:16:14;6.43;;;1.73;;
75620;SDS011;64574;48.506;-2.750;2023-12-04T18:18:41;11.13;;;2.33;;
75620;SDS011;64574;48.506;-2.750;2023-12-04T18:21:07;7.25;;;1.30;;
75620;SDS011;64574;48.506;-2.750;2023-12-04T18:23:33;8.40;;;1.80;;
75620;SDS011;64574;48.506;-2.750;2023-12-04T18:25:59;11.43;;;2.30;;
75620;SDS011;64574;48.506;-2.750;2023-12-04T18:28:25;9.35;;;1.65;;
75620;SDS011;64574;48.506;-2.750;2023-12-04T18:30:52;12.00;;;2.03;;
75620;SDS011;64574;48.506;-2.750;2023-12-04T18:33:18;7.75;;;1.70;;
75620;SDS011;64574;48.506;-2.750;2023-12-04T18:35:44;7.93;;;1.75;;
75620;SDS011;64574;48.506;-2.750;2023-12-04T18:38:14;6.18;;;1.60;;
75620;SDS011;64574;48.506;-2.750;2023-12-04T18:40:43;7.28;;;1.60;;
75620;SDS011;64574;48.506;-2.750;2023-12-04T18:43:09;7.90;;;1.77;;
75620;SDS011;64574;48.506;-2.750;2023-12-04T18:45:35;9.73;;;1.95;;
75620;SDS011;64574;48.506;-2.750;2023-12-04T18:48:05;9.05;;;2.10;;
75620;SDS011;64574;48.506;-2.750;2023-12-04T18:50:33;13.43;;;1.98;;
75620;SDS011;64574;48.506;-2.750;2023-12-04T18:52:59;9.55;;;2.10;;
75620;SDS011;64574;48.506;-2.750;2023-12-04T18:55:26;17.77;;;2.25;;
75620;SDS011;64574;48.506;-2.750;2023-12-04T18:57:52;6.80;;;1.77;;
75620;SDS011;64574;48.506;-2.750;2023-12-04T19:00:18;6.57;;;1.63;;
75620;SDS011;64574;48.506;-2.750;2023-12-04T19:02:49;4.55;;;1.38;;
75620;SDS011;64574;48.506;-2.750;2023-12-04T19:05:18;7.25;;;1.38;;
75620;SDS011;64574;48.506;-2.750;2023-12-04T19:07:44;11.85;;;2.00;;
75620;SDS011;64574;48.506;-2.750;2023-12-04T19:10:10;7.05;;;1.60;;
75620;SDS011;64574;48.506;-2.750;2023-12-04T19:12:36;7.78;;;1.98;;
75620;SDS011;64574;48.506;-2.750;2023-12-04T19:15:01;6.88;;;1.90;;
75620;SDS011;64574;48.506;-2.750;2023-12-04T19:17:27;7.63;;;1.75;;